createdAt,value
2022-08-05T00:00:23.922Z,20.40
2022-08-05T00:02:54.333Z,20.20
2022-08-05T00:06:01.768Z,20.20
2022-08-05T00:08:32.710Z,20.10
2022-08-05T00:11:01.600Z,20.10
2022-08-05T00:13:39.258Z,20.00
2022-08-05T00:16:09.046Z,20.10
2022-08-05T00:18:37.875Z,20.00
2022-08-05T00:21:08.369Z,20.00
2022-08-05T00:23:46.288Z,20.10
2022-08-05T00:26:22.134Z,20.10
2022-08-05T00:28:50.839Z,20.00
2022-08-05T00:31:54.332Z,19.90
2022-08-05T00:34:53.635Z,19.90
2022-08-05T00:37:11.837Z,19.90
2022-08-05T00:39:57.474Z,20.00
2022-08-05T00:42:38.867Z,20.00
2022-08-05T00:45:11.735Z,19.90
2022-08-05T00:47:55.975Z,19.90
2022-08-05T00:50:25.936Z,19.90
2022-08-05T00:52:55.545Z,19.80
2022-08-05T00:55:42.420Z,19.80
2022-08-05T00:58:12.222Z,19.80
2022-08-05T01:00:42.036Z,19.70
2022-08-05T01:03:12.644Z,19.50
2022-08-05T01:05:51.438Z,19.50
2022-08-05T01:08:39.201Z,19.50
2022-08-05T01:11:13.697Z,19.70
2022-08-05T01:13:58.551Z,19.80
2022-08-05T01:16:30.338Z,19.90
2022-08-05T01:19:01.014Z,19.80
2022-08-05T01:21:50.627Z,19.70
2022-08-05T01:24:30.186Z,19.80
2022-08-05T01:27:19.323Z,19.50
2022-08-05T01:29:51.757Z,19.50
2022-08-05T01:32:21.926Z,19.40
2022-08-05T01:34:50.926Z,19.60
2022-08-05T01:37:25.021Z,19.50
2022-08-05T01:39:58.682Z,19.40
2022-08-05T01:42:27.807Z,19.40
2022-08-05T01:44:59.160Z,19.40
2022-08-05T01:47:32.526Z,19.40
2022-08-05T01:50:15.023Z,19.40
2022-08-05T01:52:49.716Z,19.30
2022-08-05T01:55:19.695Z,19.50
2022-08-05T01:58:09.564Z,19.60
2022-08-05T02:00:39.629Z,19.50
2022-08-05T02:03:16.305Z,19.70
2022-08-05T02:05:59.934Z,19.80
2022-08-05T02:08:31.739Z,19.60
2022-08-05T02:11:02.871Z,19.20
2022-08-05T02:13:36.657Z,19.20
2022-08-05T02:16:24.970Z,19.50
2022-08-05T02:18:57.242Z,19.50
2022-08-05T02:21:28.016Z,19.80
2022-08-05T02:24:01.844Z,19.90
2022-08-05T02:26:36.781Z,19.70
2022-08-05T02:29:07.943Z,19.60
2022-08-05T02:31:52.087Z,19.30
2022-08-05T02:34:25.535Z,19.40
2022-08-05T02:36:57.141Z,19.50
2022-08-05T02:39:26.081Z,19.50
2022-08-05T02:42:00.724Z,19.50
2022-08-05T02:44:30.223Z,19.50
2022-08-05T02:47:01.178Z,19.50
2022-08-05T02:49:36.037Z,19.20
2022-08-05T02:52:06.668Z,19.20
2022-08-05T02:54:37.182Z,19.40
2022-08-05T02:58:08.585Z,19.40
2022-08-05T02:59:55.422Z,19.50
2022-08-05T03:02:29.539Z,19.50
2022-08-05T03:05:00.634Z,19.60
2022-08-05T03:07:59.461Z,19.60
2022-08-05T03:10:22.019Z,19.50
2022-08-05T03:12:53.955Z,19.40
2022-08-05T03:15:23.358Z,19.60
2022-08-05T03:17:55.621Z,19.40
2022-08-05T03:20:24.905Z,19.50
2022-08-05T03:22:57.070Z,19.50
2022-08-05T03:26:03.513Z,19.50
2022-08-05T03:28:14.210Z,19.50
2022-08-05T03:30:42.607Z,19.40
2022-08-05T03:33:12.441Z,19.40
2022-08-05T03:35:41.886Z,19.50
2022-08-05T03:38:12.022Z,19.50
2022-08-05T03:40:41.248Z,19.40
2022-08-05T03:43:59.310Z,19.40
2022-08-05T03:46:01.884Z,19.40
2022-08-05T03:48:35.348Z,19.50
2022-08-05T03:52:38.611Z,19.40
2022-08-05T03:55:53.870Z,19.00
2022-08-05T03:56:47.994Z,18.70
2022-08-05T03:59:21.124Z,18.90
2022-08-05T04:01:53.406Z,19.00
2022-08-05T04:04:30.075Z,18.80
2022-08-05T04:06:58.961Z,19.00
2022-08-05T04:09:27.544Z,18.80
2022-08-05T04:11:56.558Z,19.10
2022-08-05T04:14:30.536Z,19.20
2022-08-05T04:17:00.123Z,19.10
2022-08-05T04:19:30.613Z,19.20
2022-08-05T04:22:09.957Z,19.40
2022-08-05T04:24:44.350Z,19.50
2022-08-05T04:27:15.229Z,19.40
2022-08-05T04:29:43.536Z,19.60
2022-08-05T04:32:11.561Z,19.80
2022-08-05T04:34:43.264Z,19.40
2022-08-05T04:37:11.706Z,19.10
2022-08-05T04:39:40.928Z,19.40
2022-08-05T04:42:09.442Z,19.60
2022-08-05T04:44:37.635Z,19.60
2022-08-05T04:47:09.401Z,19.50
2022-08-05T04:50:01.756Z,19.10
2022-08-05T04:52:28.646Z,18.90
2022-08-05T04:54:57.907Z,19.00
2022-08-05T04:57:28.494Z,19.30
2022-08-05T04:59:56.981Z,19.20
2022-08-05T05:02:37.084Z,19.30
2022-08-05T05:05:16.857Z,19.20
2022-08-05T05:08:01.688Z,19.60
2022-08-05T05:10:33.942Z,19.50
2022-08-05T05:13:04.048Z,19.30
2022-08-05T05:15:56.974Z,19.40
2022-08-05T05:18:33.116Z,19.40
2022-08-05T05:21:03.242Z,19.00
2022-08-05T05:23:39.328Z,19.10
2022-08-05T05:26:28.550Z,19.20
2022-08-05T05:29:01.029Z,19.00
2022-08-05T05:34:02.059Z,19.10
2022-08-05T05:36:33.477Z,19.20
2022-08-05T05:39:10.980Z,19.30
2022-08-05T05:41:40.081Z,19.30
2022-08-05T05:44:27.013Z,19.30
2022-08-05T05:46:57.869Z,19.30
2022-08-05T05:49:26.472Z,19.10
2022-08-05T05:51:54.641Z,19.10
2022-08-05T05:54:50.270Z,19.20
2022-08-05T05:57:13.456Z,19.30
2022-08-05T05:59:42.021Z,19.10
2022-08-05T06:02:11.415Z,19.20
2022-08-05T06:04:39.645Z,19.20
2022-08-05T06:07:07.856Z,19.00
2022-08-05T06:10:00.053Z,18.90
2022-08-05T06:12:28.155Z,19.10
2022-08-05T06:14:58.208Z,19.10
2022-08-05T06:17:30.966Z,19.10
2022-08-05T06:19:59.937Z,19.10
2022-08-05T06:22:28.591Z,19.10
2022-08-05T06:24:58.764Z,19.20
2022-08-05T06:28:12.175Z,19.20
2022-08-05T06:30:20.096Z,19.40
2022-08-05T06:32:50.978Z,19.50
2022-08-05T06:36:04.052Z,19.40
2022-08-05T06:38:11.608Z,19.50
2022-08-05T06:40:44.405Z,19.60
2022-08-05T06:43:51.503Z,19.60
2022-08-05T06:46:06.819Z,19.60
2022-08-05T06:48:56.050Z,19.60
2022-08-05T06:51:32.728Z,19.60
2022-08-05T06:54:11.921Z,19.50
2022-08-05T06:56:55.072Z,19.60
2022-08-05T06:59:38.560Z,19.50
2022-08-05T07:02:12.215Z,18.90
2022-08-05T07:04:42.948Z,19.00
2022-08-05T07:07:24.200Z,18.70
2022-08-05T07:10:10.571Z,18.60
2022-08-05T07:13:00.856Z,18.80
2022-08-05T07:16:00.607Z,19.00
2022-08-05T07:18:30.871Z,19.20
2022-08-05T07:21:04.750Z,19.40
2022-08-05T07:23:33.783Z,19.40
2022-08-05T07:26:04.308Z,19.40
2022-08-05T07:28:36.686Z,19.50
2022-08-05T07:31:04.873Z,19.80
2022-08-05T07:33:37.209Z,20.20
2022-08-05T07:36:20.785Z,20.30
2022-08-05T07:38:49.919Z,20.20
2022-08-05T07:42:13.149Z,20.20
2022-08-05T07:44:14.186Z,20.50
2022-08-05T07:46:56.967Z,20.10
2022-08-05T07:49:25.081Z,20.20
2022-08-05T07:52:06.595Z,20.40
2022-08-05T07:54:41.241Z,20.90
2022-08-05T07:57:23.751Z,21.40
2022-08-05T08:00:06.865Z,21.50
2022-08-05T08:03:14.525Z,21.50
2022-08-05T08:05:31.804Z,21.50
2022-08-05T08:08:07.615Z,21.50
2022-08-05T08:10:40.704Z,21.10
2022-08-05T08:13:08.749Z,21.50
2022-08-05T08:16:50.002Z,21.70
2022-08-05T08:18:29.235Z,21.80
2022-08-05T08:21:01.804Z,22.20
2022-08-05T08:24:02.399Z,22.00
2022-08-05T08:26:29.518Z,22.40
2022-08-05T08:28:59.807Z,22.40
2022-08-05T08:31:48.778Z,22.80
2022-08-05T08:34:19.036Z,23.00
2022-08-05T08:37:04.597Z,23.00
2022-08-05T08:39:37.742Z,22.70
2022-08-05T08:42:10.803Z,23.10
2022-08-05T08:45:18.645Z,23.20
2022-08-05T08:48:12.695Z,23.70
2022-08-05T08:51:04.494Z,23.70
2022-08-05T08:53:29.202Z,24.20
2022-08-05T08:56:03.605Z,24.30
2022-08-05T08:58:44.481Z,24.10
2022-08-05T09:01:19.700Z,24.20
2022-08-05T09:03:55.596Z,24.40
2022-08-05T09:06:32.191Z,24.30
2022-08-05T09:09:08.315Z,24.40
2022-08-05T09:11:50.789Z,24.50
2022-08-05T09:14:56.817Z,24.00
2022-08-05T09:17:40.967Z,24.10
2022-08-05T09:20:08.528Z,24.40
2022-08-05T09:23:04.889Z,24.80
2022-08-05T09:26:02.842Z,25.20
2022-08-05T09:28:32.154Z,25.20
2022-08-05T09:31:22.120Z,25.80
2022-08-05T09:33:55.420Z,25.80
2022-08-05T09:36:27.789Z,25.70
2022-08-05T09:39:02.474Z,25.50
2022-08-05T09:41:33.157Z,25.60
2022-08-05T09:44:07.272Z,25.90
2022-08-05T09:46:51.941Z,25.90
2022-08-05T09:49:40.369Z,25.50
2022-08-05T09:52:23.055Z,24.10
2022-08-05T09:54:58.762Z,23.10
2022-08-05T09:57:30.459Z,22.40
2022-08-05T10:00:08.944Z,22.20
2022-08-05T10:02:40.418Z,22.20
2022-08-05T10:05:10.140Z,22.30
2022-08-05T10:08:36.744Z,22.00
2022-08-05T10:10:53.846Z,22.30
2022-08-05T10:13:31.564Z,22.00
2022-08-05T10:16:27.536Z,22.10
2022-08-05T10:18:56.499Z,22.40
2022-08-05T10:21:25.465Z,22.40
2022-08-05T10:24:10.838Z,22.80
2022-08-05T10:26:51.563Z,22.30
2022-08-05T10:29:24.078Z,22.30
2022-08-05T10:32:55.633Z,22.40
2022-08-05T10:35:01.008Z,22.20
2022-08-05T10:37:40.331Z,22.30
2022-08-05T10:40:20.554Z,22.30
2022-08-05T10:43:02.467Z,22.50
2022-08-05T10:45:41.855Z,22.50
2022-08-05T10:48:52.792Z,22.40
2022-08-05T10:51:29.120Z,22.30
2022-08-05T10:54:01.663Z,22.70
2022-08-05T10:56:45.870Z,22.90
2022-08-05T11:00:03.289Z,22.60
2022-08-05T11:02:14.061Z,22.40
2022-08-05T11:05:02.449Z,22.40
2022-08-05T11:08:01.830Z,21.90
2022-08-05T11:10:27.361Z,21.90
2022-08-05T11:13:01.246Z,21.70
2022-08-05T11:15:59.173Z,21.60
2022-08-05T11:18:34.124Z,21.60
2022-08-05T11:21:06.275Z,21.20
2022-08-05T11:24:04.719Z,21.30
2022-08-05T11:26:33.616Z,21.60
2022-08-05T11:29:06.697Z,21.60
2022-08-05T11:31:57.201Z,21.90
2022-08-05T11:34:51.372Z,21.80
2022-08-05T11:38:30.350Z,21.90
2022-08-05T11:41:00.406Z,21.70
2022-08-05T11:44:04.926Z,21.90
2022-08-05T11:46:32.776Z,21.90
2022-08-05T11:49:07.903Z,21.60
2022-08-05T11:51:43.771Z,21.90
2022-08-05T11:54:14.051Z,22.00
2022-08-05T11:56:50.245Z,22.40
2022-08-05T11:59:21.153Z,22.20
2022-08-05T12:01:57.766Z,21.90
2022-08-05T12:04:26.129Z,21.80
2022-08-05T12:06:55.277Z,21.80
2022-08-05T12:09:52.660Z,21.80
2022-08-05T12:12:14.955Z,21.80
2022-08-05T12:14:47.408Z,21.70
2022-08-05T12:18:02.915Z,21.80
2022-08-05T12:20:26.766Z,21.50
2022-08-05T12:23:09.269Z,21.50
2022-08-05T12:25:49.837Z,21.60
2022-08-05T12:28:36.733Z,21.70
2022-08-05T12:31:07.924Z,21.80
2022-08-05T12:33:38.822Z,21.10
2022-08-05T12:36:08.998Z,20.30
2022-08-05T12:38:39.649Z,20.30
2022-08-05T12:41:13.484Z,20.50
2022-08-05T12:43:55.092Z,20.50
2022-08-05T12:46:29.413Z,19.90
2022-08-05T12:49:00.664Z,19.60
2022-08-05T12:52:14.493Z,19.60
2022-08-05T12:54:23.436Z,19.80
2022-08-05T12:56:55.361Z,20.20
2022-08-05T12:59:46.647Z,20.60
2022-08-05T13:02:13.814Z,20.80
2022-08-05T13:04:52.594Z,21.00
2022-08-05T13:07:55.769Z,20.70
2022-08-05T13:10:13.338Z,20.40
2022-08-05T13:12:42.656Z,20.00
2022-08-05T13:15:24.423Z,20.10
2022-08-05T13:18:04.317Z,20.00
2022-08-05T13:20:40.374Z,19.60
2022-08-05T13:23:08.883Z,19.80
2022-08-05T13:25:52.093Z,20.20
2022-08-05T13:28:25.359Z,20.20
2022-08-05T13:30:53.695Z,20.10
2022-08-05T13:34:23.399Z,20.30
2022-08-05T13:36:14.342Z,20.60
2022-08-05T13:38:43.310Z,20.80
2022-08-05T13:41:12.187Z,20.70
2022-08-05T13:43:45.618Z,20.60
2022-08-05T13:46:43.712Z,20.60
2022-08-05T13:49:16.599Z,20.60
2022-08-05T13:51:47.196Z,20.30
2022-08-05T13:54:16.405Z,20.50
2022-08-05T13:56:50.688Z,20.40
2022-08-05T13:59:27.070Z,19.80
2022-08-05T14:01:57.737Z,20.10
2022-08-05T14:04:49.459Z,20.30
2022-08-05T14:07:56.379Z,20.00
2022-08-05T14:10:12.824Z,19.90
2022-08-05T14:12:48.626Z,19.80
2022-08-05T14:16:05.260Z,19.60
2022-08-05T14:18:05.719Z,19.60
2022-08-05T14:20:42.665Z,19.50
2022-08-05T14:23:23.862Z,19.70
2022-08-05T14:25:54.304Z,19.60
2022-08-05T14:28:26.501Z,19.50
2022-08-05T14:30:55.478Z,19.50
2022-08-05T14:33:24.223Z,19.50
2022-08-05T14:35:54.753Z,19.70
2022-08-05T14:38:32.315Z,19.60
2022-08-05T14:41:07.692Z,19.60
2022-08-05T14:44:02.417Z,19.60
2022-08-05T14:46:28.219Z,19.60
2022-08-05T14:48:58.858Z,19.70
2022-08-05T14:51:30.823Z,19.40
2022-08-05T14:54:26.028Z,19.40
2022-08-05T14:56:51.043Z,19.00
2022-08-05T14:59:22.788Z,18.90
2022-08-05T15:01:51.394Z,19.00
2022-08-05T15:04:22.533Z,19.00
2022-08-05T15:06:51.418Z,18.80
2022-08-05T15:09:50.511Z,18.70
2022-08-05T15:12:11.750Z,18.70
2022-08-05T15:14:52.347Z,18.70
2022-08-05T15:17:46.095Z,18.80
2022-08-05T15:20:18.335Z,18.80
2022-08-05T15:22:52.357Z,18.70
2022-08-05T15:25:41.202Z,18.70
2022-08-05T15:28:14.805Z,18.60
2022-08-05T15:30:45.501Z,18.90
2022-08-05T15:33:56.853Z,19.00
2022-08-05T15:36:06.187Z,19.10
2022-08-05T15:38:45.302Z,19.10
2022-08-05T15:41:23.260Z,19.00
2022-08-05T15:43:55.444Z,19.00
2022-08-05T15:46:24.405Z,18.80
2022-08-05T15:49:00.810Z,19.00
2022-08-05T15:52:12.467Z,19.00
2022-08-05T15:54:34.826Z,19.10
2022-08-05T15:57:09.841Z,19.00
2022-08-05T15:59:38.404Z,18.90
2022-08-05T16:02:09.739Z,18.90
2022-08-05T16:04:44.113Z,18.90
2022-08-05T16:07:13.360Z,18.70
2022-08-05T16:09:42.089Z,18.80
2022-08-05T16:12:13.483Z,18.70
2022-08-05T16:14:43.414Z,18.70
2022-08-05T16:17:12.325Z,18.70
2022-08-05T16:20:04.313Z,18.80
2022-08-05T16:22:34.077Z,18.80
2022-08-05T16:25:09.611Z,18.90
2022-08-05T16:28:00.715Z,19.00
2022-08-05T16:30:28.744Z,18.90
2022-08-05T16:32:57.395Z,18.90
2022-08-05T16:35:28.691Z,18.70
2022-08-05T16:38:15.212Z,18.70
2022-08-05T16:40:55.236Z,18.70
2022-08-05T16:43:30.641Z,18.70
2022-08-05T16:46:07.464Z,18.80
2022-08-05T16:48:41.611Z,18.80
2022-08-05T16:51:10.912Z,18.90
2022-08-05T16:54:05.931Z,19.10
2022-08-05T16:56:31.182Z,19.10
2022-08-05T16:59:08.335Z,18.90
2022-08-05T17:01:54.329Z,18.80
2022-08-05T17:04:28.359Z,18.80
2022-08-05T17:07:01.266Z,18.70
2022-08-05T17:09:30.484Z,18.70
2022-08-05T17:12:07.013Z,18.60
2022-08-05T17:14:40.021Z,18.80
2022-08-05T17:17:15.074Z,18.70
2022-08-05T17:19:46.648Z,18.80
2022-08-05T17:22:25.444Z,18.80
2022-08-05T17:24:58.304Z,19.10
2022-08-05T17:27:34.267Z,18.90
2022-08-05T17:30:07.142Z,18.90
2022-08-05T17:32:47.128Z,18.80
2022-08-05T17:35:20.969Z,18.80
2022-08-05T17:37:52.962Z,18.80
2022-08-05T17:40:29.934Z,18.90
2022-08-05T17:42:59.750Z,19.00
2022-08-05T17:45:29.554Z,19.00
2022-08-05T17:48:08.126Z,18.90
2022-08-05T17:50:36.318Z,18.90
2022-08-05T17:53:08.651Z,18.90
2022-08-05T17:55:39.530Z,18.80
2022-08-05T17:58:13.435Z,18.80
2022-08-05T18:00:47.074Z,18.80
2022-08-05T18:03:48.448Z,19.00
2022-08-05T18:06:11.164Z,19.00
2022-08-05T18:08:44.987Z,18.90
2022-08-05T18:11:23.178Z,18.90
2022-08-05T18:13:51.879Z,18.90
2022-08-05T18:16:22.820Z,18.90
2022-08-05T18:18:50.950Z,18.80
2022-08-05T18:21:19.549Z,18.90
2022-08-05T18:23:58.275Z,18.80
2022-08-05T18:26:29.602Z,18.80
2022-08-05T18:29:00.323Z,18.80
2022-08-05T18:31:35.600Z,18.80
2022-08-05T18:34:06.636Z,18.70
2022-08-05T18:36:43.676Z,18.80
2022-08-05T18:39:42.001Z,18.80
2022-08-05T18:42:05.046Z,18.90
2022-08-05T18:44:51.457Z,18.90
2022-08-05T18:47:26.834Z,18.90
2022-08-05T18:50:15.529Z,18.90
2022-08-05T18:52:51.059Z,18.90
2022-08-05T18:55:21.676Z,19.00
2022-08-05T18:57:54.134Z,18.90
2022-08-05T19:00:34.799Z,18.80
2022-08-05T19:03:04.836Z,18.70
2022-08-05T19:06:11.362Z,18.70
2022-08-05T19:08:30.826Z,18.70
2022-08-05T19:11:04.457Z,18.60
2022-08-05T19:13:36.713Z,18.60
2022-08-05T19:16:25.509Z,18.60
2022-08-05T19:18:57.412Z,18.60
2022-08-05T19:21:27.636Z,18.60
2022-08-05T19:24:05.997Z,18.60
2022-08-05T19:26:54.723Z,18.50
2022-08-05T19:29:26.623Z,18.40
2022-08-05T19:32:04.436Z,18.50
2022-08-05T19:34:34.677Z,18.50
2022-08-05T19:37:03.731Z,18.50
2022-08-05T19:39:45.311Z,18.50
2022-08-05T19:42:35.845Z,18.60
2022-08-05T19:45:14.552Z,18.60
2022-08-05T19:47:43.294Z,18.50
2022-08-05T19:50:13.911Z,18.60
2022-08-05T19:52:42.665Z,18.60
2022-08-05T19:56:13.926Z,18.70
2022-08-05T19:58:29.076Z,18.80
2022-08-05T20:00:53.184Z,18.80
2022-08-05T20:03:23.950Z,18.80
2022-08-05T20:05:56.833Z,18.80
2022-08-05T20:08:26.471Z,18.80
2022-08-05T20:10:55.341Z,18.90
2022-08-05T20:13:54.534Z,18.80
2022-08-05T20:16:11.863Z,18.80
2022-08-05T20:18:40.314Z,18.90
2022-08-05T20:21:10.159Z,18.90
2022-08-05T20:23:51.363Z,18.90
2022-08-05T20:26:26.014Z,18.90
2022-08-05T20:28:55.946Z,18.90
2022-08-05T20:31:37.034Z,18.90
2022-08-05T20:34:12.587Z,19.00
2022-08-05T20:36:43.515Z,19.00
2022-08-05T20:39:16.687Z,18.90
2022-08-05T20:41:47.687Z,19.00
2022-08-05T20:44:30.649Z,18.90
2022-08-05T20:46:59.627Z,18.80
2022-08-05T20:49:27.916Z,18.90
2022-08-05T20:51:59.745Z,18.80
2022-08-05T20:54:43.329Z,18.90
2022-08-05T20:57:42.661Z,18.90
2022-08-05T21:00:20.670Z,18.90
2022-08-05T21:03:01.559Z,19.00
2022-08-05T21:05:48.034Z,18.90
2022-08-05T21:08:26.542Z,19.00
2022-08-05T21:11:09.894Z,19.00
2022-08-05T21:13:48.472Z,18.90
2022-08-05T21:16:29.679Z,19.00
2022-08-05T21:19:07.098Z,19.10
2022-08-05T21:21:44.391Z,19.00
2022-08-05T21:24:20.439Z,18.90
2022-08-05T21:26:53.230Z,18.90
2022-08-05T21:29:31.523Z,18.90
2022-08-05T21:34:55.861Z,18.90
2022-08-05T21:37:41.006Z,18.90
2022-08-05T21:40:23.335Z,18.90
2022-08-05T21:42:52.893Z,18.90
2022-08-05T21:45:24.589Z,18.80
2022-08-05T21:48:08.233Z,18.80
2022-08-05T21:50:37.485Z,18.80
2022-08-05T21:53:17.437Z,18.80
2022-08-05T21:56:04.450Z,18.80
2022-08-05T21:58:36.575Z,18.80
2022-08-05T22:01:05.821Z,18.70
2022-08-05T22:03:51.812Z,18.70
2022-08-05T22:06:35.110Z,18.60
2022-08-05T22:09:20.850Z,18.60
2022-08-05T22:11:51.688Z,18.60
2022-08-05T22:14:35.594Z,18.50
2022-08-05T22:17:07.352Z,18.40
2022-08-05T22:20:02.015Z,18.40
2022-08-05T22:22:28.060Z,18.40
2022-08-05T22:25:21.190Z,18.30
2022-08-05T22:28:10.958Z,18.30
2022-08-05T22:30:44.197Z,18.20
2022-08-05T22:33:56.630Z,18.20
2022-08-05T22:36:14.456Z,18.20
2022-08-05T22:38:43.391Z,18.10
2022-08-05T22:41:11.626Z,18.20
2022-08-05T22:43:44.182Z,18.20
2022-08-05T22:46:20.990Z,18.20
2022-08-05T22:48:52.534Z,18.10
2022-08-05T22:51:22.881Z,18.20
2022-08-05T22:53:58.056Z,18.00
2022-08-05T22:56:30.703Z,18.00
2022-08-05T22:59:03.246Z,18.00
2022-08-05T23:02:05.063Z,18.10
2022-08-05T23:04:21.034Z,18.10
2022-08-05T23:06:49.324Z,18.00
2022-08-05T23:09:27.829Z,18.00
2022-08-05T23:12:10.140Z,17.90
2022-08-05T23:14:40.533Z,17.80
2022-08-05T23:17:34.405Z,17.90
2022-08-05T23:20:16.482Z,17.90
2022-08-05T23:22:47.113Z,17.80
2022-08-05T23:25:17.673Z,17.70
2022-08-05T23:28:07.208Z,17.80
2022-08-05T23:30:43.937Z,17.70
2022-08-05T23:33:26.478Z,17.70
2022-08-05T23:36:10.459Z,17.60
2022-08-05T23:38:38.789Z,17.60
2022-08-05T23:41:07.334Z,17.60
2022-08-05T23:44:05.600Z,17.60
2022-08-05T23:46:26.518Z,17.60
2022-08-05T23:49:00.346Z,17.40
2022-08-05T23:51:53.474Z,17.30
2022-08-05T23:54:25.070Z,17.50
2022-08-05T23:56:54.905Z,17.40
2022-08-05T23:59:27.671Z,17.40
